createdAt,value
2018-10-19T00:02:41.109Z,8.90
2018-10-19T00:07:44.267Z,11.07
2018-10-19T00:12:47.474Z,9.97
2018-10-19T00:17:50.578Z,12.20
2018-10-19T00:22:53.757Z,11.27
2018-10-19T00:27:56.967Z,15.13
2018-10-19T00:33:00.193Z,13.63
2018-10-19T00:38:03.320Z,14.10
2018-10-19T00:43:06.480Z,14.53
2018-10-19T00:48:12.725Z,12.77
2018-10-19T00:53:16.207Z,13.87
2018-10-19T00:58:19.302Z,14.70
2018-10-19T01:03:22.568Z,18.20
2018-10-19T01:08:25.754Z,17.20
2018-10-19T01:13:28.892Z,21.47
2018-10-19T01:18:32.090Z,18.30
2018-10-19T01:23:35.281Z,20.53
2018-10-19T01:28:38.501Z,17.80
2018-10-19T01:33:41.675Z,19.50
2018-10-19T01:38:44.833Z,18.60
2018-10-19T01:43:47.966Z,22.33
2018-10-19T01:48:51.139Z,23.67
2018-10-19T01:53:54.302Z,19.57
2018-10-19T01:58:57.593Z,20.10
2018-10-19T02:04:02.333Z,17.13
2018-10-19T02:09:06.691Z,20.30
2018-10-19T02:14:09.806Z,19.82
2018-10-19T02:19:13.111Z,21.13
2018-10-19T02:24:16.375Z,18.03
2018-10-19T02:29:19.595Z,21.67
2018-10-19T02:34:22.916Z,18.57
2018-10-19T02:39:26.228Z,20.00
2018-10-19T02:44:29.409Z,17.40
2018-10-19T02:49:32.562Z,20.37
2018-10-19T02:54:35.706Z,19.73
2018-10-19T02:59:38.897Z,19.30
2018-10-19T03:04:42.010Z,16.23
2018-10-19T03:09:45.225Z,18.97
2018-10-19T03:14:48.377Z,19.93
2018-10-19T03:19:51.508Z,19.57
2018-10-19T03:24:54.713Z,18.00
2018-10-19T03:29:57.835Z,17.90
2018-10-19T03:35:01.062Z,19.40
2018-10-19T03:40:04.133Z,16.33
2018-10-19T03:45:07.576Z,19.47
2018-10-19T03:50:10.696Z,19.73
2018-10-19T03:55:13.852Z,18.53
2018-10-19T04:00:17.040Z,20.50
2018-10-19T04:05:21.705Z,21.10
2018-10-19T04:10:24.886Z,20.17
2018-10-19T04:15:28.084Z,23.07
2018-10-19T04:20:31.231Z,23.03
2018-10-19T04:25:34.510Z,23.67
2018-10-19T04:30:38.033Z,26.10
2018-10-19T04:35:41.202Z,25.07
2018-10-19T04:40:44.327Z,27.17
2018-10-19T04:45:47.567Z,28.07
2018-10-19T04:50:50.831Z,29.85
2018-10-19T04:55:54.011Z,32.78
2018-10-19T05:00:57.143Z,31.07
2018-10-19T05:06:00.428Z,28.60
2018-10-19T05:11:03.481Z,32.70
2018-10-19T05:16:06.742Z,30.93
2018-10-19T05:21:09.982Z,34.37
2018-10-19T05:26:13.141Z,35.13
2018-10-19T05:31:16.245Z,32.27
2018-10-19T05:36:19.470Z,35.67
2018-10-19T05:41:22.578Z,34.47
2018-10-19T05:46:25.765Z,35.77
2018-10-19T05:51:28.954Z,31.70
2018-10-19T05:56:32.146Z,37.47
2018-10-19T06:01:35.299Z,35.80
2018-10-19T06:06:38.463Z,39.33
2018-10-19T06:11:41.852Z,37.47
2018-10-19T06:16:44.950Z,38.87
2018-10-19T06:21:48.085Z,38.73
2018-10-19T06:26:51.262Z,38.30
2018-10-19T06:31:54.388Z,45.80
2018-10-19T06:36:57.574Z,41.30
2018-10-19T06:42:00.727Z,39.83
2018-10-19T06:47:03.982Z,35.67
2018-10-19T06:52:07.085Z,40.00
2018-10-19T06:57:10.285Z,38.70
2018-10-19T07:02:13.534Z,39.07
2018-10-19T07:07:16.588Z,33.57
2018-10-19T07:12:19.733Z,38.73
2018-10-19T07:17:22.930Z,35.17
2018-10-19T07:22:26.025Z,34.50
2018-10-19T07:27:29.142Z,39.97
2018-10-19T07:32:32.274Z,35.87
2018-10-19T07:37:35.566Z,33.07
2018-10-19T07:42:38.746Z,30.43
2018-10-19T07:47:41.962Z,30.27
2018-10-19T07:52:45.157Z,28.57
2018-10-19T07:57:48.389Z,33.57
2018-10-19T08:02:51.526Z,31.63
2018-10-19T08:07:54.823Z,34.97
2018-10-19T08:12:57.973Z,34.00
2018-10-19T08:18:01.133Z,34.27
2018-10-19T08:23:04.361Z,31.00
2018-10-19T08:28:07.451Z,33.10
2018-10-19T08:33:10.616Z,33.43
2018-10-19T08:38:13.811Z,27.87
2018-10-19T08:43:17.039Z,29.33
2018-10-19T08:48:20.255Z,32.17
2018-10-19T08:53:23.507Z,30.23
2018-10-19T08:58:26.693Z,31.27
2018-10-19T09:03:29.847Z,38.03
2018-10-19T09:08:32.957Z,30.53
2018-10-19T09:13:36.302Z,30.23
2018-10-19T09:18:39.690Z,35.07
2018-10-19T09:23:42.762Z,28.80
2018-10-19T09:28:45.892Z,30.53
2018-10-19T09:33:49.046Z,24.80
2018-10-19T09:38:52.277Z,27.30
2018-10-19T09:43:55.444Z,25.00
2018-10-19T09:48:58.624Z,24.23
2018-10-19T09:54:01.751Z,22.65
2018-10-19T09:59:05.543Z,23.07
2018-10-19T10:04:08.659Z,24.43
2018-10-19T10:09:13.988Z,22.52
2018-10-19T10:14:17.136Z,21.45
2018-10-19T10:19:20.299Z,25.25
2018-10-19T10:24:23.474Z,21.07
2018-10-19T10:29:26.667Z,25.40
2018-10-19T10:34:29.795Z,21.35
2018-10-19T10:39:33.026Z,22.42
2018-10-19T10:44:36.178Z,21.62
2018-10-19T10:49:39.344Z,20.97
2018-10-19T10:54:42.447Z,21.75
2018-10-19T10:59:45.627Z,20.37
2018-10-19T11:04:48.784Z,26.52
2018-10-19T11:09:52.016Z,21.35
2018-10-19T11:14:55.213Z,22.10
2018-10-19T11:19:58.426Z,21.65
2018-10-19T11:25:01.737Z,22.40
2018-10-19T11:30:05.826Z,27.85
2018-10-19T11:35:09.156Z,27.15
2018-10-19T11:40:36.887Z,23.98
2018-10-19T11:45:40.299Z,25.15
2018-10-19T11:50:43.425Z,24.92
2018-10-19T11:55:46.587Z,24.20
2018-10-19T12:00:49.768Z,23.75
2018-10-19T12:05:52.844Z,23.92
2018-10-19T12:10:56.060Z,25.15
2018-10-19T12:15:59.318Z,30.48
2018-10-19T12:21:02.777Z,23.90
2018-10-19T12:26:06.801Z,24.52
2018-10-19T12:31:09.958Z,24.77
2018-10-19T12:36:13.066Z,23.27
2018-10-19T12:41:16.314Z,21.80
2018-10-19T12:46:57.679Z,28.02
2018-10-19T12:52:00.789Z,21.95
2018-10-19T12:57:03.987Z,21.97
2018-10-19T13:02:14.245Z,22.85
2018-10-19T13:07:17.542Z,25.00
2018-10-19T13:12:20.601Z,22.37
2018-10-19T13:17:23.730Z,19.67
2018-10-19T13:22:26.933Z,21.48
2018-10-19T13:27:30.093Z,26.65
2018-10-19T13:32:33.203Z,23.27
2018-10-19T13:37:36.409Z,27.10
2018-10-19T13:42:39.610Z,22.87
2018-10-19T13:47:42.747Z,23.47
2018-10-19T13:52:45.909Z,28.00
2018-10-19T13:57:49.074Z,21.87
2018-10-19T14:02:52.206Z,27.00
2018-10-19T14:07:55.347Z,30.17
2018-10-19T14:12:58.521Z,25.23
2018-10-19T14:18:01.636Z,24.73
2018-10-19T14:23:05.220Z,23.50
2018-10-19T14:28:08.311Z,23.97
2018-10-19T14:33:11.541Z,23.03
2018-10-19T14:38:14.630Z,23.90
2018-10-19T14:43:17.791Z,24.10
2018-10-19T14:48:20.918Z,22.70
2018-10-19T14:53:24.104Z,29.02
2018-10-19T14:58:27.243Z,25.70
2018-10-19T15:03:30.348Z,24.60
2018-10-19T15:08:33.573Z,28.07
2018-10-19T15:13:36.697Z,22.90
2018-10-19T15:18:39.902Z,33.17
2018-10-19T15:23:42.968Z,24.47
2018-10-19T15:28:46.148Z,29.17
2018-10-19T15:33:49.335Z,26.17
2018-10-19T15:38:52.520Z,26.73
2018-10-19T15:43:55.657Z,27.27
2018-10-19T15:48:58.870Z,25.83
2018-10-19T15:54:02.685Z,25.77
2018-10-19T15:59:05.915Z,27.70
2018-10-19T16:04:09.026Z,26.63
2018-10-19T16:09:13.475Z,26.83
2018-10-19T16:14:16.619Z,30.10
2018-10-19T16:19:19.782Z,25.87
2018-10-19T16:24:22.964Z,26.63
2018-10-19T16:29:26.141Z,29.03
2018-10-19T16:34:29.455Z,26.47
2018-10-19T16:39:32.690Z,28.53
2018-10-19T16:44:35.847Z,27.63
2018-10-19T16:49:39.001Z,26.20
2018-10-19T16:54:42.197Z,27.37
2018-10-19T16:59:45.396Z,30.53
2018-10-19T17:04:48.644Z,24.87
2018-10-19T17:09:51.691Z,23.20
2018-10-19T17:14:54.845Z,23.93
2018-10-19T17:19:58.009Z,24.60
2018-10-19T17:25:01.166Z,24.83
2018-10-19T17:30:05.952Z,20.53
2018-10-19T17:35:09.830Z,22.77
2018-10-19T17:40:12.914Z,24.07
2018-10-19T17:45:16.139Z,24.37
2018-10-19T17:50:19.209Z,23.80
2018-10-19T17:55:22.350Z,25.67
2018-10-19T18:00:25.469Z,31.67
2018-10-19T18:05:28.603Z,34.50
2018-10-19T18:10:31.784Z,36.40
2018-10-19T18:15:35.018Z,38.03
2018-10-19T18:20:38.171Z,36.93
2018-10-19T18:25:41.370Z,34.00
2018-10-19T18:30:44.573Z,30.47
2018-10-19T18:35:47.690Z,28.00
2018-10-19T18:40:50.904Z,28.17
2018-10-19T18:45:54.034Z,32.60
2018-10-19T18:50:57.193Z,29.03
2018-10-19T18:56:00.448Z,29.87
2018-10-19T19:01:03.558Z,27.90
2018-10-19T19:06:06.750Z,27.50
2018-10-19T19:11:09.964Z,28.45
2018-10-19T19:16:29.557Z,25.97
2018-10-19T19:21:32.748Z,31.37
2018-10-19T19:26:35.845Z,27.13
2018-10-19T19:31:39.009Z,26.87
2018-10-19T19:36:42.145Z,27.07
2018-10-19T19:42:03.197Z,30.80
2018-10-19T19:47:06.328Z,36.33
2018-10-19T19:52:09.481Z,31.60
2018-10-19T19:57:12.659Z,34.40
2018-10-19T20:02:15.870Z,36.33
2018-10-19T20:07:18.997Z,35.40
2018-10-19T20:12:22.294Z,32.47
2018-10-19T20:17:25.568Z,29.97
2018-10-19T20:22:28.687Z,30.17
2018-10-19T20:27:31.877Z,29.97
2018-10-19T20:32:35.026Z,31.95
2018-10-19T20:37:38.135Z,28.43
2018-10-19T20:42:41.295Z,31.63
2018-10-19T20:47:44.438Z,29.20
2018-10-19T20:52:47.610Z,29.07
2018-10-19T20:57:50.718Z,28.03
2018-10-19T21:02:53.917Z,28.00
2018-10-19T21:07:57.101Z,28.57
2018-10-19T21:13:00.301Z,31.80
2018-10-19T21:18:03.429Z,28.47
2018-10-19T21:23:06.609Z,32.57
2018-10-19T21:28:09.845Z,28.67
2018-10-19T21:33:13.053Z,30.07
2018-10-19T21:38:16.279Z,32.73
2018-10-19T21:43:19.384Z,32.23
2018-10-19T21:48:22.524Z,31.53
2018-10-19T21:53:25.723Z,29.70
2018-10-19T21:58:28.882Z,30.57
2018-10-19T22:03:32.080Z,36.40
2018-10-19T22:08:35.347Z,36.30
2018-10-19T22:13:38.437Z,30.87
2018-10-19T22:18:41.602Z,30.23
2018-10-19T22:23:44.763Z,31.13
2018-10-19T22:28:47.925Z,30.47
2018-10-19T22:33:51.070Z,33.40
2018-10-19T22:38:54.247Z,34.97
2018-10-19T22:43:57.455Z,31.20
2018-10-19T22:49:00.524Z,30.67
2018-10-19T22:54:03.685Z,27.53
2018-10-19T22:59:06.879Z,28.37
2018-10-19T23:04:10.001Z,30.33
2018-10-19T23:09:13.173Z,31.73
2018-10-19T23:14:16.313Z,31.13
2018-10-19T23:19:19.449Z,33.67
2018-10-19T23:24:23.593Z,30.10
2018-10-19T23:29:25.809Z,28.07
2018-10-19T23:34:28.914Z,27.07
2018-10-19T23:39:32.079Z,27.17
2018-10-19T23:44:35.249Z,28.27
2018-10-19T23:49:38.409Z,29.00
2018-10-19T23:54:41.603Z,28.57
2018-10-19T23:59:44.853Z,24.57
